Time;durP1;ratioP1;P1;durP2;ratioP2;P2;SDS_P1;SDS_P2;PMS_P1;PMS_P2;Temp;Humidity;BMP_temperature;BMP_pressure;BME280_temperature;BME280_humidity;BME280_pressure;Samples;Min_cycle;Max_cycle;Signal;HPM_P1;HPM_P2
2023/01/15 00:00:51;;;;;;;2.20;0.40;;;9.70;99.90;;;;;;5083977;28;20020;-62
2023/01/15 00:03:17;;;;;;;2.85;0.40;;;9.60;99.90;;;;;;5085762;28;20028;-63
2023/01/15 00:05:42;;;;;;;0.82;0.30;;;9.60;99.90;;;;;;5082607;28;20031;-63
2023/01/15 00:08:08;;;;;;;2.70;0.30;;;9.70;99.90;;;;;;5086151;28;20040;-62
2023/01/15 00:10:35;;;;;;;2.13;0.30;;;9.60;99.90;;;;;;5079649;28;20059;-63
2023/01/15 00:13:00;;;;;;;2.05;0.40;;;9.60;99.90;;;;;;5085722;28;20439;-64
2023/01/15 00:15:26;;;;;;;0.57;0.30;;;9.60;99.90;;;;;;5080130;28;20024;-63
2023/01/15 00:17:51;;;;;;;1.98;0.40;;;9.70;99.90;;;;;;5079774;28;20586;-64
2023/01/15 00:20:17;;;;;;;0.85;0.30;;;9.80;99.90;;;;;;5080306;28;20066;-63
2023/01/15 00:22:43;;;;;;;1.15;0.40;;;9.80;99.90;;;;;;5082337;28;20473;-64
2023/01/15 00:27:54;;;;;;;1.08;0.22;;;10.10;99.90;;;;;;5078090;28;20079;-63
2023/01/15 00:30:19;;;;;;;4.60;0.30;;;10.00;99.90;;;;;;5087225;28;20476;-63
2023/01/15 00:32:45;;;;;;;0.65;0.28;;;10.20;99.90;;;;;;5077196;28;20477;-63
2023/01/15 00:35:19;;;;;;;0.90;0.20;;;10.20;99.90;;;;;;5081313;28;20136;-63
2023/01/15 00:37:45;;;;;;;0.82;0.10;;;10.20;99.90;;;;;;5083257;28;20032;-62
2023/01/15 00:40:12;;;;;;;0.55;0.20;;;10.40;99.90;;;;;;5080924;28;20074;-61
2023/01/15 00:42:38;;;;;;;0.68;0.30;;;10.40;99.90;;;;;;5086871;28;20044;-62
2023/01/15 00:45:09;;;;;;;0.50;0.20;;;10.50;99.90;;;;;;5084149;28;20984;-63
2023/01/15 00:47:42;;;;;;;0.93;0.20;;;10.50;99.90;;;;;;5081668;28;20457;-63
2023/01/15 00:50:11;;;;;;;0.90;0.30;;;10.60;99.90;;;;;;5086757;28;20046;-62
2023/01/15 00:52:36;;;;;;;0.57;0.30;;;10.60;99.90;;;;;;5082036;28;20073;-62
2023/01/15 00:55:03;;;;;;;2.72;0.17;;;10.60;99.90;;;;;;5083647;28;20035;-63
2023/01/15 00:57:28;;;;;;;0.45;0.10;;;10.60;99.90;;;;;;5085127;28;20030;-63
2023/01/15 00:59:54;;;;;;;0.73;0.25;;;10.70;99.90;;;;;;5090464;28;20036;-63
2023/01/15 01:02:19;;;;;;;0.60;0.10;;;10.70;99.90;;;;;;5086779;28;20028;-62
2023/01/15 01:04:45;;;;;;;1.23;0.30;;;10.70;99.90;;;;;;5086910;28;20056;-62
2023/01/15 01:07:11;;;;;;;1.13;0.28;;;10.90;99.90;;;;;;5077608;28;20031;-63
2023/01/15 01:09:37;;;;;;;1.10;0.15;;;10.90;99.90;;;;;;5091926;28;20020;-62
2023/01/15 01:12:03;;;;;;;0.38;0.15;;;10.80;99.90;;;;;;5087361;28;20388;-62
2023/01/15 01:14:29;;;;;;;0.17;0.10;;;10.80;99.90;;;;;;5090219;28;20421;-63
2023/01/15 01:16:54;;;;;;;0.20;0.10;;;10.80;99.90;;;;;;5090060;28;20039;-63
2023/01/15 01:19:22;;;;;;;1.00;0.20;;;10.70;99.90;;;;;;5090614;28;20097;-63
2023/01/15 01:21:48;;;;;;;1.45;0.30;;;10.80;99.90;;;;;;5088746;28;20035;-63
2023/01/15 01:24:20;;;;;;;0.30;0.20;;;10.70;99.90;;;;;;5088390;28;20055;-64
2023/01/15 01:26:46;;;;;;;0.68;0.28;;;10.70;99.90;;;;;;5084236;28;20028;-64
2023/01/15 01:29:14;;;;;;;0.80;0.20;;;10.50;99.90;;;;;;5087815;28;20040;-63
2023/01/15 01:31:40;;;;;;;0.20;0.10;;;10.50;99.90;;;;;;5079114;28;20155;-63
2023/01/15 01:34:08;;;;;;;0.50;0.10;;;10.60;99.90;;;;;;5091415;28;20055;-62
2023/01/15 01:36:39;;;;;;;0.55;0.17;;;10.70;99.90;;;;;;5087016;28;20020;-62
2023/01/15 01:39:06;;;;;;;0.88;0.15;;;10.60;99.90;;;;;;5082505;28;20064;-63
2023/01/15 01:41:32;;;;;;;0.80;0.17;;;10.60;99.90;;;;;;5080174;28;20036;-63
2023/01/15 01:44:24;;;;;;;0.55;0.20;;;10.60;99.90;;;;;;5089137;28;20114;-64
2023/01/15 01:46:49;;;;;;;0.60;0.10;;;10.70;99.90;;;;;;5089354;28;20392;-63
2023/01/15 01:49:15;;;;;;;0.38;0.13;;;10.80;99.90;;;;;;5087093;28;20036;-62
2023/01/15 01:51:50;;;;;;;0.20;0.10;;;10.90;99.90;;;;;;5089282;28;20036;-62
2023/01/15 01:54:20;;;;;;;0.70;0.15;;;11.00;99.90;;;;;;5080003;28;20036;-62
2023/01/15 01:56:48;;;;;;;0.47;0.15;;;11.00;99.90;;;;;;5088726;28;20050;-62
2023/01/15 01:59:16;;;;;;;1.65;0.17;;;11.10;99.90;;;;;;5090265;28;20040;-63
2023/01/15 02:01:42;;;;;;;0.45;0.20;;;11.00;99.90;;;;;;5087603;28;20496;-63
2023/01/15 02:04:09;;;;;;;0.43;0.10;;;11.00;99.90;;;;;;5089799;28;20047;-62
2023/01/15 02:06:37;;;;;;;2.80;0.20;;;11.10;99.90;;;;;;5088329;28;20032;-63
2023/01/15 02:09:04;;;;;;;0.75;0.10;;;11.10;99.90;;;;;;5089791;28;20036;-63
2023/01/15 02:11:31;;;;;;;1.02;0.20;;;11.10;99.90;;;;;;5086721;28;20048;-65
2023/01/15 02:14:07;;;;;;;0.40;0.15;;;11.10;99.90;;;;;;5084357;28;20032;-63
2023/01/15 02:16:59;;;;;;;0.30;0.10;;;11.10;99.90;;;;;;5093024;28;20023;-63
2023/01/15 02:19:34;;;;;;;1.08;0.20;;;11.10;99.90;;;;;;5070979;28;20071;-63
2023/01/15 02:22:34;;;;;;;0.77;0.10;;;11.00;99.90;;;;;;5081729;28;20043;-63
2023/01/15 02:25:07;;;;;;;0.73;0.10;;;11.00;99.90;;;;;;5091118;28;20048;-64
2023/01/15 02:27:34;;;;;;;0.60;0.10;;;11.00;99.90;;;;;;5088133;28;20135;-63
2023/01/15 02:30:15;;;;;;;0.70;0.20;;;10.90;99.90;;;;;;5070726;28;20562;-64
2023/01/15 02:32:51;;;;;;;0.65;0.10;;;10.90;99.90;;;;;;5084211;28;20036;-63
2023/01/15 02:35:22;;;;;;;0.63;0.20;;;11.00;99.90;;;;;;5086242;28;20031;-62
2023/01/15 02:37:53;;;;;;;0.98;0.10;;;11.00;99.90;;;;;;5088978;28;20464;-63
2023/01/15 02:40:20;;;;;;;;;;;11.00;99.90;;;;;;5089328;28;20788;-62
2023/01/15 02:42:48;;;;;;;0.28;0.10;;;11.00;99.90;;;;;;5085484;28;20022;-63
2023/01/15 02:45:22;;;;;;;0.43;0.13;;;11.00;99.90;;;;;;5089120;28;20472;-62
2023/01/15 02:47:50;;;;;;;2.67;0.20;;;11.00;99.90;;;;;;5087017;28;20060;-61
2023/01/15 02:50:22;;;;;;;0.40;0.10;;;11.10;99.90;;;;;;5086816;28;20157;-62
2023/01/15 02:52:53;;;;;;;0.30;0.20;;;11.10;99.90;;;;;;5087310;28;20063;-62
2023/01/15 02:55:28;;;;;;;0.65;0.32;;;11.10;99.90;;;;;;5088272;28;20027;-63
2023/01/15 02:57:58;;;;;;;1.88;0.68;;;11.00;99.90;;;;;;5087721;28;20054;-63
2023/01/15 03:00:26;;;;;;;0.52;0.20;;;11.10;99.90;;;;;;5082132;28;20020;-63
2023/01/15 03:03:00;;;;;;;0.30;0.20;;;11.00;99.90;;;;;;5089187;28;20051;-62
2023/01/15 03:05:32;;;;;;;0.52;0.17;;;11.00;99.90;;;;;;5087372;28;20030;-64
2023/01/15 03:08:01;;;;;;;1.05;0.10;;;11.10;99.90;;;;;;5093361;28;20419;-63
2023/01/15 03:11:00;;;;;;;2.00;0.20;;;11.00;99.90;;;;;;5085745;28;20024;-63
2023/01/15 03:13:38;;;;;;;0.77;0.10;;;11.10;99.90;;;;;;5083494;28;20040;-62
2023/01/15 03:16:36;;;;;;;0.25;0.00;;;11.00;99.90;;;;;;5087499;28;20024;-63
2023/01/15 03:19:07;;;;;;;0.45;0.10;;;11.00;99.90;;;;;;5087218;28;20709;-64
2023/01/15 03:21:51;;;;;;;0.45;0.20;;;11.00;99.90;;;;;;5088353;28;20028;-63
2023/01/15 03:24:35;;;;;;;0.82;0.13;;;11.00;99.90;;;;;;5094627;28;20450;-64
2023/01/15 03:27:01;;;;;;;0.25;0.13;;;11.00;99.90;;;;;;5085374;28;20193;-63
2023/01/15 03:29:31;;;;;;;0.20;0.10;;;10.90;99.90;;;;;;5086616;28;20032;-64
2023/01/15 03:31:58;;;;;;;0.35;0.10;;;10.90;99.90;;;;;;5081205;28;20035;-63
2023/01/15 03:34:28;;;;;;;0.45;0.10;;;10.90;99.90;;;;;;5086741;28;20099;-62
2023/01/15 03:36:54;;;;;;;0.38;0.10;;;10.80;99.90;;;;;;5086346;28;20032;-61
2023/01/15 03:39:20;;;;;;;1.27;0.10;;;10.90;99.90;;;;;;5086636;28;20170;-64
2023/01/15 03:42:03;;;;;;;0.75;0.10;;;10.90;99.90;;;;;;5083949;28;20498;-63
2023/01/15 03:44:50;;;;;;;0.10;0.00;;;10.80;99.90;;;;;;5087056;28;20051;-63
2023/01/15 03:47:50;;;;;;;1.10;0.10;;;10.70;99.90;;;;;;5080801;28;20099;-62
2023/01/15 03:50:26;;;;;;;0.22;0.10;;;10.70;99.90;;;;;;5078747;28;20105;-61
2023/01/15 03:53:07;;;;;;;0.32;0.10;;;10.50;99.90;;;;;;5090460;28;20569;-63
2023/01/15 03:55:32;;;;;;;;;;;10.40;99.90;;;;;;5082592;28;20028;-63
2023/01/15 03:58:04;;;;;;;1.02;0.15;;;10.30;99.90;;;;;;5084275;28;19927;-61
2023/01/15 04:00:35;;;;;;;0.75;0.15;;;10.30;99.90;;;;;;5074064;28;20032;-62
2023/01/15 04:03:05;;;;;;;0.20;0.10;;;10.30;99.90;;;;;;5088265;28;20134;-62
2023/01/15 04:05:33;;;;;;;0.10;0.00;;;10.20;99.90;;;;;;5087349;28;20706;-62
2023/01/15 04:08:00;;;;;;;0.63;0.20;;;10.20;99.90;;;;;;5088337;28;20036;-62
2023/01/15 04:10:25;;;;;;;0.40;0.10;;;10.30;99.90;;;;;;5078831;28;20161;-61
2023/01/15 04:12:51;;;;;;;1.00;0.13;;;10.20;99.90;;;;;;5080988;28;20115;-63
2023/01/15 04:15:17;;;;;;;0.20;0.10;;;10.10;99.90;;;;;;5086562;28;20043;-62
2023/01/15 04:17:43;;;;;;;0.30;0.13;;;10.20;99.90;;;;;;5080089;28;20032;-63
2023/01/15 04:20:10;;;;;;;0.10;0.10;;;10.20;99.90;;;;;;5086566;28;20392;-64
2023/01/15 04:22:35;;;;;;;2.05;0.30;;;10.10;99.90;;;;;;5086860;28;20100;-63
2023/01/15 04:25:02;;;;;;;0.30;0.10;;;10.20;99.90;;;;;;5081435;28;20111;-62
2023/01/15 04:27:28;;;;;;;0.30;0.10;;;10.20;99.90;;;;;;5080796;28;20213;-62
2023/01/15 04:29:54;;;;;;;0.38;0.10;;;10.30;99.90;;;;;;5081746;28;20437;-62
2023/01/15 04:32:19;;;;;;;0.40;0.10;;;10.30;99.90;;;;;;5067465;28;20036;-63
2023/01/15 04:34:45;;;;;;;0.22;0.10;;;10.30;99.90;;;;;;5081882;28;20067;-62
2023/01/15 04:37:12;;;;;;;0.60;0.10;;;10.30;99.90;;;;;;5084503;28;20032;-61
2023/01/15 04:39:38;;;;;;;1.23;0.10;;;10.20;99.90;;;;;;5086136;28;20112;-62
2023/01/15 04:44:48;;;;;;;0.52;0.10;;;10.30;99.90;;;;;;5091238;28;20047;-63
2023/01/15 04:47:14;;;;;;;0.13;0.03;;;10.30;99.90;;;;;;5094433;28;20032;-62
2023/01/15 04:49:39;;;;;;;0.30;0.10;;;10.40;99.90;;;;;;5097810;28;20579;-63
2023/01/15 04:52:05;;;;;;;0.13;0.10;;;10.50;99.90;;;;;;5091978;28;20024;-63
2023/01/15 04:54:31;;;;;;;0.50;0.10;;;10.50;99.90;;;;;;5088783;28;20894;-63
2023/01/15 04:56:56;;;;;;;0.43;0.03;;;10.60;99.90;;;;;;5083092;28;20081;-63
2023/01/15 04:59:25;;;;;;;0.40;0.00;;;10.60;99.90;;;;;;5087323;28;20139;-64
2023/01/15 05:01:51;;;;;;;0.10;0.03;;;10.60;99.90;;;;;;5082865;28;20069;-62
2023/01/15 05:04:17;;;;;;;0.52;0.10;;;10.60;99.90;;;;;;5089465;28;20123;-64
2023/01/15 05:06:42;;;;;;;1.95;0.05;;;10.60;99.90;;;;;;5083819;28;20106;-62
2023/01/15 05:09:08;;;;;;;0.22;0.05;;;10.60;99.90;;;;;;5091115;28;20452;-64
2023/01/15 05:11:35;;;;;;;0.22;0.00;;;10.70;99.90;;;;;;5085250;28;20036;-63
2023/01/15 05:14:01;;;;;;;0.13;0.00;;;10.70;99.90;;;;;;5082513;28;20032;-63
2023/01/15 05:16:28;;;;;;;0.00;0.00;;;10.80;99.90;;;;;;5088984;28;20047;-62
2023/01/15 05:18:57;;;;;;;0.10;0.00;;;10.80;99.90;;;;;;5091568;28;20111;-62
2023/01/15 05:21:25;;;;;;;0.68;0.20;;;10.80;99.90;;;;;;5089303;28;20058;-62
2023/01/15 05:23:53;;;;;;;0.30;0.03;;;10.90;99.90;;;;;;5090402;28;20036;-61
2023/01/15 05:26:20;;;;;;;0.73;0.20;;;10.90;99.90;;;;;;5090466;28;20032;-63
2023/01/15 05:28:46;;;;;;;0.30;0.10;;;10.90;99.90;;;;;;5082611;28;20424;-63
2023/01/15 05:31:16;;;;;;;0.65;0.10;;;10.90;99.90;;;;;;5085038;28;20040;-65
2023/01/15 05:33:42;;;;;;;1.90;0.20;;;10.90;99.90;;;;;;5091361;28;20113;-63
2023/01/15 05:36:14;;;;;;;2.30;0.08;;;10.90;99.90;;;;;;5088825;28;20040;-62
2023/01/15 05:38:40;;;;;;;0.20;0.00;;;11.10;99.90;;;;;;5084962;28;20040;-63
2023/01/15 05:43:54;;;;;;;1.30;0.10;;;11.00;99.90;;;;;;5088759;28;20131;-63
2023/01/15 05:46:21;;;;;;;0.30;0.00;;;11.10;99.90;;;;;;5075293;28;20611;-62
2023/01/15 05:48:47;;;;;;;0.13;0.00;;;11.20;99.90;;;;;;5091113;28;20032;-63
2023/01/15 05:51:13;;;;;;;0.10;0.00;;;11.20;99.90;;;;;;5089118;28;20182;-63
2023/01/15 05:53:38;;;;;;;0.47;0.08;;;11.30;99.90;;;;;;5084498;28;20057;-62
2023/01/15 05:56:05;;;;;;;0.98;0.00;;;11.40;99.90;;;;;;5087261;28;20112;-63
2023/01/15 05:58:30;;;;;;;0.75;0.00;;;11.50;99.90;;;;;;5089257;28;20401;-63
2023/01/15 06:00:56;;;;;;;0.52;0.00;;;11.50;99.90;;;;;;5085620;28;20028;-62
2023/01/15 06:03:23;;;;;;;0.93;0.43;;;11.40;99.90;;;;;;5081325;28;20036;-62
2023/01/15 06:05:53;;;;;;;0.30;0.00;;;11.40;99.90;;;;;;5084109;28;20016;-62
2023/01/15 06:08:20;;;;;;;0.15;0.00;;;11.30;99.90;;;;;;5089254;28;20394;-63
2023/01/15 06:10:46;;;;;;;1.45;0.10;;;11.10;99.90;;;;;;5090025;28;20033;-62
2023/01/15 06:13:13;;;;;;;0.00;0.00;;;11.00;99.90;;;;;;5093250;28;20032;-64
2023/01/15 06:15:39;;;;;;;0.40;0.10;;;11.00;99.90;;;;;;5092007;28;20018;-64
2023/01/15 06:18:04;;;;;;;0.70;0.10;;;10.70;99.90;;;;;;5090661;28;20032;-64
2023/01/15 06:20:30;;;;;;;0.10;0.08;;;10.30;99.90;;;;;;5089977;28;20028;-63
2023/01/15 06:22:56;;;;;;;0.20;0.00;;;9.70;99.90;;;;;;5090718;28;20831;-63
2023/01/15 06:25:21;;;;;;;1.35;0.10;;;9.30;99.90;;;;;;5089481;28;20103;-63
2023/01/15 06:27:48;;;;;;;1.15;0.10;;;9.10;99.90;;;;;;5079051;28;20178;-62
2023/01/15 06:30:14;;;;;;;0.10;0.03;;;8.90;99.90;;;;;;5051753;28;20111;-65
2023/01/15 06:32:40;;;;;;;0.43;0.10;;;8.80;99.90;;;;;;5069825;28;20045;-62
2023/01/15 06:35:06;;;;;;;0.28;0.10;;;8.60;99.90;;;;;;5069962;28;20032;-63
2023/01/15 06:37:32;;;;;;;0.40;0.10;;;8.50;99.90;;;;;;5068073;28;20031;-63
2023/01/15 06:39:58;;;;;;;0.08;0.00;;;8.40;99.90;;;;;;5069904;28;20100;-63
2023/01/15 06:47:56;;;;;;;0.30;0.13;;;8.00;99.90;;;;;;5068378;28;20082;-62
2023/01/15 06:50:22;;;;;;;0.20;0.03;;;7.90;99.90;;;;;;5070034;28;20024;-63
2023/01/15 06:52:47;;;;;;;0.00;0.00;;;7.90;99.90;;;;;;5069667;28;20469;-64
2023/01/15 06:55:13;;;;;;;0.40;0.10;;;7.80;99.90;;;;;;5068825;28;20372;-62
2023/01/15 06:57:39;;;;;;;0.10;0.10;;;7.80;99.90;;;;;;5072100;28;20020;-62
2023/01/15 07:00:07;;;;;;;0.20;0.00;;;7.70;99.90;;;;;;5069145;28;20029;-63
2023/01/15 07:02:33;;;;;;;0.30;0.03;;;7.60;99.90;;;;;;5068276;28;20043;-64
2023/01/15 07:04:59;;;;;;;0.30;0.10;;;7.50;99.90;;;;;;5082028;28;20016;-63
2023/01/15 07:07:27;;;;;;;0.57;0.10;;;7.50;99.90;;;;;;5068462;28;20706;-62
2023/01/15 07:09:53;;;;;;;0.70;0.17;;;7.50;99.90;;;;;;5063301;28;20600;-62
2023/01/15 07:12:20;;;;;;;0.28;0.10;;;7.40;99.90;;;;;;5048784;28;20115;-64
2023/01/15 07:14:45;;;;;;;0.10;0.10;;;7.40;99.90;;;;;;5062142;28;20089;-62
2023/01/15 07:17:11;;;;;;;0.13;0.10;;;7.40;99.90;;;;;;5066417;28;20032;-63
2023/01/15 07:19:37;;;;;;;0.70;0.10;;;7.40;99.90;;;;;;5063246;28;20252;-63
2023/01/15 07:22:04;;;;;;;0.40;0.20;;;7.30;99.90;;;;;;5063991;28;20478;-63
2023/01/15 07:24:29;;;;;;;1.85;0.10;;;7.30;99.90;;;;;;5064139;28;20035;-62
2023/01/15 07:26:55;;;;;;;0.70;0.35;;;7.30;99.90;;;;;;5068049;28;20044;-61
2023/01/15 07:29:22;;;;;;;0.30;0.17;;;7.20;99.90;;;;;;5088557;28;20028;-63
2023/01/15 07:31:48;;;;;;;0.10;0.03;;;7.20;99.90;;;;;;5091356;28;20020;-63
2023/01/15 07:34:14;;;;;;;0.10;0.10;;;7.20;99.90;;;;;;5083237;28;20036;-63
2023/01/15 07:36:40;;;;;;;0.05;0.00;;;7.10;99.90;;;;;;5074288;28;20072;-63
2023/01/15 07:39:07;;;;;;;0.25;0.10;;;7.00;99.90;;;;;;5080656;28;20035;-63
2023/01/15 07:49:48;;;;;;;0.30;0.15;;;6.90;99.90;;;;;;5086813;28;20042;-64
2023/01/15 07:52:16;;;;;;;0.50;0.13;;;6.90;99.90;;;;;;5088638;28;20080;-63
2023/01/15 07:54:43;;;;;;;0.43;0.20;;;6.80;99.90;;;;;;5085494;28;20383;-64
2023/01/15 07:57:10;;;;;;;1.63;0.30;;;6.80;99.90;;;;;;5090776;28;20032;-64
2023/01/15 07:59:35;;;;;;;0.43;0.20;;;6.80;99.90;;;;;;5085844;28;20075;-64
2023/01/15 08:02:01;;;;;;;0.10;0.00;;;6.80;99.90;;;;;;5086341;28;20028;-64
2023/01/15 08:04:27;;;;;;;1.85;0.00;;;6.70;99.90;;;;;;5078161;28;20048;-63
2023/01/15 08:06:53;;;;;;;0.00;0.00;;;6.50;99.90;;;;;;5086273;28;20077;-68
2023/01/15 08:09:18;;;;;;;0.38;0.10;;;6.40;99.90;;;;;;5085003;28;20028;-63
2023/01/15 08:17:12;;;;;;;0.38;0.10;;;6.00;99.90;;;;;;5085902;28;20035;-64
2023/01/15 08:19:38;;;;;;;1.25;0.10;;;6.00;99.90;;;;;;5084640;28;20032;-63
2023/01/15 08:22:03;;;;;;;0.40;0.10;;;6.00;99.90;;;;;;5085836;28;20027;-64
2023/01/15 08:24:29;;;;;;;0.38;0.20;;;5.90;99.90;;;;;;5091626;28;20687;-63
2023/01/15 08:26:55;;;;;;;0.52;0.43;;;5.90;99.90;;;;;;5082379;28;20047;-64
2023/01/15 08:29:21;;;;;;;0.35;0.10;;;5.80;99.90;;;;;;5086276;28;20055;-63
2023/01/15 08:31:47;;;;;;;0.25;0.10;;;5.80;99.90;;;;;;5081132;28;20478;-63
2023/01/15 08:34:12;;;;;;;2.17;0.30;;;5.90;99.90;;;;;;5079152;28;20050;-63
2023/01/15 08:36:38;;;;;;;1.02;0.40;;;5.80;99.90;;;;;;5073354;28;20423;-62
2023/01/15 08:39:04;;;;;;;0.80;0.40;;;5.80;99.90;;;;;;5079892;28;20097;-63
2023/01/15 08:41:30;;;;;;;0.60;0.40;;;5.70;99.90;;;;;;5071574;28;20130;-63
2023/01/15 08:43:56;;;;;;;0.55;0.32;;;5.70;99.90;;;;;;5087167;28;20132;-62
2023/01/15 08:46:21;;;;;;;2.03;0.40;;;5.60;99.90;;;;;;5079176;28;20103;-63
2023/01/15 08:48:48;;;;;;;0.70;0.43;;;5.50;99.90;;;;;;5082537;28;20031;-63
2023/01/15 08:51:14;;;;;;;1.85;0.55;;;5.50;99.90;;;;;;5087125;28;20039;-63
2023/01/15 08:53:40;;;;;;;1.20;0.55;;;5.40;99.90;;;;;;5080276;28;20549;-63
2023/01/15 08:56:17;;;;;;;1.42;0.70;;;5.40;99.90;;;;;;5075556;28;20042;-63
2023/01/15 08:58:44;;;;;;;0.88;0.50;;;5.40;99.90;;;;;;5081859;28;20024;-63
2023/01/15 09:01:14;;;;;;;1.10;0.60;;;5.40;99.90;;;;;;5080476;28;20025;-62
2023/01/15 09:03:41;;;;;;;0.70;0.47;;;5.40;99.90;;;;;;5075252;28;20043;-63
2023/01/15 09:06:06;;;;;;;0.90;0.50;;;5.40;99.90;;;;;;5085374;28;20036;-63
2023/01/15 09:08:32;;;;;;;0.95;0.50;;;5.30;99.90;;;;;;5071420;28;20028;-62
2023/01/15 09:10:59;;;;;;;0.82;0.43;;;5.30;99.90;;;;;;5078661;28;20039;-64
2023/01/15 09:13:26;;;;;;;1.30;0.52;;;5.30;99.90;;;;;;5064545;28;20119;-63
2023/01/15 09:15:52;;;;;;;0.38;0.17;;;5.30;99.90;;;;;;5074846;28;20036;-62
2023/01/15 09:18:19;;;;;;;0.40;0.22;;;5.30;99.90;;;;;;5076074;28;20525;-62
2023/01/15 09:20:47;;;;;;;0.70;0.30;;;5.20;99.90;;;;;;5077337;28;20020;-63
2023/01/15 09:23:14;;;;;;;0.77;0.25;;;5.20;99.90;;;;;;5085357;28;20040;-63
2023/01/15 09:25:41;;;;;;;0.50;0.25;;;5.20;99.90;;;;;;5085968;28;20063;-62
2023/01/15 09:28:07;;;;;;;0.50;0.28;;;5.20;99.90;;;;;;5083464;28;20064;-63
2023/01/15 09:30:33;;;;;;;0.40;0.20;;;5.20;99.90;;;;;;5084292;28;20028;-62
2023/01/15 09:32:58;;;;;;;1.10;0.32;;;5.30;99.90;;;;;;5089523;28;20387;-62
2023/01/15 09:35:24;;;;;;;0.82;0.30;;;5.30;99.90;;;;;;5091536;28;20085;-62
2023/01/15 09:37:53;;;;;;;0.60;0.20;;;5.20;99.90;;;;;;5072281;28;20288;-62
2023/01/15 09:40:33;;;;;;;0.43;0.20;;;5.20;99.90;;;;;;5091165;28;20028;-62
2023/01/15 09:43:08;;;;;;;1.25;0.30;;;5.10;99.90;;;;;;5090953;28;20032;-62
2023/01/15 09:45:43;;;;;;;0.70;0.22;;;5.20;99.90;;;;;;5096039;28;20103;-64
2023/01/15 09:48:46;;;;;;;1.10;0.30;;;5.10;99.90;;;;;;5091302;28;20056;-63
2023/01/15 09:51:32;;;;;;;1.00;0.38;;;5.10;99.90;;;;;;5091008;28;20105;-61
2023/01/15 09:54:45;;;;;;;2.08;0.30;;;5.20;99.90;;;;;;5085656;28;20043;-62
2023/01/15 09:57:15;;;;;;;0.93;0.30;;;5.10;99.90;;;;;;4988388;28;20061;-61
2023/01/15 09:59:44;;;;;;;0.32;0.15;;;5.10;99.90;;;;;;5080432;28;20094;-63
2023/01/15 10:02:46;;;;;;;0.85;0.30;;;5.00;99.90;;;;;;5090688;28;20074;-62
2023/01/15 10:05:22;;;;;;;0.73;0.30;;;5.00;99.90;;;;;;5090734;28;20043;-62
2023/01/15 10:07:59;;;;;;;0.82;0.32;;;5.00;99.90;;;;;;5089390;28;20085;-62
2023/01/15 10:10:32;;;;;;;0.57;0.20;;;5.00;99.90;;;;;;5095747;28;20032;-61
2023/01/15 10:13:08;;;;;;;0.70;0.22;;;4.90;99.90;;;;;;5090706;28;20101;-63
2023/01/15 10:15:43;;;;;;;0.85;0.30;;;4.90;99.90;;;;;;5089947;28;20034;-63
2023/01/15 10:18:26;;;;;;;0.80;0.20;;;4.90;99.90;;;;;;5090722;28;20016;-62
2023/01/15 10:21:10;;;;;;;0.70;0.30;;;4.90;99.90;;;;;;5089650;28;20060;-62
2023/01/15 10:23:50;;;;;;;0.70;0.40;;;4.90;99.90;;;;;;5088911;28;20040;-63
2023/01/15 10:26:46;;;;;;;0.90;0.28;;;5.00;99.90;;;;;;5087118;28;20028;-63
2023/01/15 10:29:25;;;;;;;1.60;0.47;;;5.00;99.90;;;;;;5089724;28;20088;-63
2023/01/15 10:32:02;;;;;;;0.98;0.10;;;4.90;99.90;;;;;;5089431;28;20044;-62
2023/01/15 10:34:34;;;;;;;0.32;0.10;;;5.00;99.90;;;;;;5089819;28;20036;-63
2023/01/15 10:37:25;;;;;;;0.40;0.17;;;5.00;99.90;;;;;;5087082;28;20029;-63
2023/01/15 10:40:16;;;;;;;0.47;0.10;;;5.00;99.90;;;;;;5083314;28;20534;-63
2023/01/15 10:43:05;;;;;;;0.00;0.00;;;4.90;99.90;;;;;;5077887;28;20055;-61
2023/01/15 10:45:40;;;;;;;0.88;0.10;;;4.90;99.90;;;;;;5082409;28;20066;-63
2023/01/15 10:48:23;;;;;;;0.68;0.10;;;4.90;99.90;;;;;;5086810;28;20562;-61
2023/01/15 10:50:49;;;;;;;0.32;0.10;;;4.80;99.90;;;;;;5086378;28;20077;-63
2023/01/15 10:53:18;;;;;;;0.52;0.10;;;4.80;99.90;;;;;;5087965;28;20124;-63
2023/01/15 10:55:51;;;;;;;0.32;0.20;;;4.80;99.90;;;;;;5086817;28;20056;-63
2023/01/15 10:58:41;;;;;;;0.43;0.10;;;4.80;99.90;;;;;;5088000;28;20036;-62
2023/01/15 11:01:15;;;;;;;0.20;0.10;;;4.80;99.90;;;;;;5064195;28;20032;-63
2023/01/15 11:03:42;;;;;;;1.13;0.15;;;4.80;99.90;;;;;;5075122;28;20040;-62
2023/01/15 11:06:15;;;;;;;0.32;0.10;;;4.70;99.90;;;;;;5082147;28;20039;-61
2023/01/15 11:08:43;;;;;;;0.55;0.10;;;4.60;99.90;;;;;;5087650;28;20032;-63
2023/01/15 11:19:39;;;;;;;0.35;0.13;;;4.50;99.90;;;;;;5087393;28;20028;-64
2023/01/15 11:22:11;;;;;;;1.33;0.25;;;4.50;99.90;;;;;;5088041;28;20476;-63
2023/01/15 11:24:44;;;;;;;0.17;0.10;;;4.60;99.90;;;;;;5087448;28;20549;-63
2023/01/15 11:27:18;;;;;;;0.40;0.10;;;4.60;99.90;;;;;;5076805;28;20058;-66
2023/01/15 11:29:44;;;;;;;0.80;0.10;;;4.50;99.90;;;;;;5084518;28;20063;-64
2023/01/15 11:32:29;;;;;;;0.55;0.10;;;4.40;99.90;;;;;;5086454;28;20485;-63
2023/01/15 11:34:58;;;;;;;0.30;0.05;;;4.40;99.90;;;;;;5086660;28;20090;-63
2023/01/15 11:37:25;;;;;;;0.47;0.10;;;4.30;99.90;;;;;;5083071;28;20516;-63
2023/01/15 11:40:07;;;;;;;0.20;0.00;;;4.10;99.90;;;;;;5079167;28;20032;-63
2023/01/15 11:51:05;;;;;;;0.40;0.10;;;3.90;99.90;;;;;;5083386;28;20434;-63
2023/01/15 11:53:34;;;;;;;0.30;0.10;;;3.80;99.90;;;;;;5084856;28;20032;-62
2023/01/15 11:56:05;;;;;;;0.45;0.10;;;3.90;99.90;;;;;;5067162;28;20047;-61
2023/01/15 11:58:48;;;;;;;2.95;0.20;;;3.80;99.90;;;;;;5084170;28;20040;-64
2023/01/15 12:01:34;;;;;;;0.40;0.13;;;3.80;99.90;;;;;;5087830;28;20024;-63
2023/01/15 12:04:02;;;;;;;0.85;0.20;;;3.80;99.90;;;;;;5084673;28;20032;-63
2023/01/15 12:06:29;;;;;;;0.13;0.10;;;3.80;99.90;;;;;;5088084;28;20024;-63
2023/01/15 12:09:04;;;;;;;0.35;0.10;;;3.80;99.90;;;;;;5082812;28;20150;-64
2023/01/15 12:12:03;;;;;;;0.32;0.00;;;3.80;99.90;;;;;;5084091;28;20081;-64
2023/01/15 12:14:51;;;;;;;1.20;0.10;;;3.70;99.90;;;;;;5078768;28;20028;-64
2023/01/15 12:17:53;;;;;;;0.82;0.20;;;3.70;99.90;;;;;;5078434;28;20032;-62
2023/01/15 12:20:45;;;;;;;4.22;0.60;;;3.70;99.90;;;;;;5079624;28;20052;-63
2023/01/15 12:23:44;;;;;;;0.20;0.10;;;3.60;99.90;;;;;;5079891;28;20036;-63
2023/01/15 12:26:16;;;;;;;0.45;0.20;;;3.60;99.90;;;;;;5078655;28;20031;-63
2023/01/15 12:29:11;;;;;;;1.23;0.30;;;3.50;99.90;;;;;;5083166;28;20056;-63
2023/01/15 12:31:46;;;;;;;0.73;0.30;;;3.40;99.90;;;;;;5092495;28;20046;-63
2023/01/15 12:34:37;;;;;;;1.17;0.50;;;3.40;99.90;;;;;;5082788;28;20503;-61
2023/01/15 12:37:19;;;;;;;0.57;0.32;;;3.40;99.90;;;;;;5087360;28;20043;-63
2023/01/15 12:39:50;;;;;;;1.13;0.40;;;3.30;99.90;;;;;;5083091;28;20035;-63
2023/01/15 12:45:25;;;;;;;1.38;0.40;;;3.30;99.90;;;;;;5085205;28;20062;-63
2023/01/15 12:48:05;;;;;;;0.93;0.20;;;3.30;99.90;;;;;;5084636;28;20051;-63
2023/01/15 12:50:37;;;;;;;2.13;0.30;;;3.30;99.90;;;;;;5079359;28;20481;-61
2023/01/15 12:53:11;;;;;;;0.68;0.38;;;3.30;99.90;;;;;;5076928;28;20068;-63
2023/01/15 12:55:47;;;;;;;1.63;0.28;;;3.30;99.90;;;;;;5078449;28;20398;-62
2023/01/15 12:58:25;;;;;;;2.47;0.40;;;3.20;99.90;;;;;;5082887;28;20028;-62
2023/01/15 13:01:04;;;;;;;1.10;0.30;;;3.20;99.90;;;;;;5073616;28;20036;-63
2023/01/15 13:03:43;;;;;;;0.90;0.20;;;3.20;99.90;;;;;;5084713;28;20040;-62
2023/01/15 13:06:13;;;;;;;3.60;0.10;;;3.20;99.90;;;;;;5085451;28;20078;-64
2023/01/15 13:09:00;;;;;;;3.70;0.30;;;3.20;99.90;;;;;;5085884;28;20810;-63
2023/01/15 13:11:26;;;;;;;0.70;0.30;;;3.20;99.90;;;;;;5088899;28;20032;-64
2023/01/15 13:13:57;;;;;;;3.00;0.30;;;3.20;99.90;;;;;;5086991;28;20729;-62
2023/01/15 13:16:34;;;;;;;1.00;0.30;;;3.20;99.90;;;;;;5081993;28;20039;-63
2023/01/15 13:19:24;;;;;;;2.20;0.52;;;3.20;99.90;;;;;;5086571;28;20058;-61
2023/01/15 13:21:53;;;;;;;1.00;0.30;;;3.20;99.90;;;;;;5071490;28;20538;-62
2023/01/15 13:24:37;;;;;;;0.75;0.38;;;3.20;99.90;;;;;;5095157;28;20043;-62
2023/01/15 13:27:23;;;;;;;1.10;0.40;;;3.20;99.90;;;;;;5082363;28;20040;-63
2023/01/15 13:30:30;;;;;;;0.65;0.38;;;3.20;99.90;;;;;;5085004;28;20481;-62
2023/01/15 13:33:15;;;;;;;1.60;0.40;;;3.20;99.90;;;;;;5061772;28;20435;-62
2023/01/15 13:35:47;;;;;;;0.95;0.35;;;3.20;99.90;;;;;;5074689;28;20036;-63
2023/01/15 13:38:20;;;;;;;0.68;0.20;;;3.20;99.90;;;;;;5080546;28;20075;-62
2023/01/15 13:40:50;;;;;;;1.25;0.28;;;3.20;99.90;;;;;;5078130;28;20032;-61
2023/01/15 13:43:30;;;;;;;1.85;0.30;;;3.20;99.90;;;;;;5089451;28;20044;-62
2023/01/15 13:45:57;;;;;;;0.47;0.20;;;3.20;99.90;;;;;;5083482;28;20065;-62
2023/01/15 13:48:35;;;;;;;0.55;0.25;;;3.20;99.90;;;;;;5085288;28;20374;-62
2023/01/15 13:51:04;;;;;;;2.83;0.40;;;3.30;99.90;;;;;;5086813;28;20041;-62
2023/01/15 13:53:38;;;;;;;0.65;0.32;;;3.30;99.90;;;;;;5081734;28;20028;-62
2023/01/15 13:56:09;;;;;;;0.77;0.40;;;3.30;99.90;;;;;;5080051;28;20086;-61
2023/01/15 13:58:39;;;;;;;2.55;0.50;;;3.30;99.90;;;;;;5083699;28;20046;-62
2023/01/15 14:01:16;;;;;;;0.73;0.30;;;3.30;99.90;;;;;;5088383;28;20032;-62